createdAt,value
2019-01-14T00:00:38.674Z,6.01
2019-01-14T00:03:08.355Z,6.05
2019-01-14T00:05:37.880Z,6.07
2019-01-14T00:08:07.834Z,6.08
2019-01-14T00:10:37.358Z,6.09
2019-01-14T00:13:06.958Z,6.08
2019-01-14T00:15:36.528Z,6.04
2019-01-14T00:18:06.225Z,6.00
2019-01-14T00:20:35.747Z,5.96
2019-01-14T00:23:05.480Z,5.94
2019-01-14T00:25:34.998Z,5.91
2019-01-14T00:28:04.516Z,5.83
2019-01-14T00:30:34.094Z,5.69
2019-01-14T00:33:03.611Z,5.51
2019-01-14T00:35:33.126Z,5.35
2019-01-14T00:38:02.667Z,5.22
2019-01-14T00:40:32.209Z,5.14
2019-01-14T00:43:02.229Z,5.10
2019-01-14T00:45:31.883Z,5.05
2019-01-14T00:48:01.523Z,5.03
2019-01-14T00:50:31.036Z,5.03
2019-01-14T00:53:00.791Z,5.06
2019-01-14T00:55:30.480Z,5.10
2019-01-14T00:58:00.017Z,5.15
2019-01-14T01:00:29.934Z,5.16
2019-01-14T01:02:59.488Z,5.20
2019-01-14T01:05:29.070Z,5.26
2019-01-14T01:07:58.611Z,5.29
2019-01-14T01:10:28.234Z,5.35
2019-01-14T01:12:57.782Z,5.37
2019-01-14T01:15:27.391Z,5.37
2019-01-14T01:17:56.911Z,5.36
2019-01-14T01:20:26.825Z,5.38
2019-01-14T01:22:56.402Z,5.36
2019-01-14T01:25:25.966Z,5.30
2019-01-14T01:27:55.479Z,5.25
2019-01-14T01:30:25.492Z,5.18
2019-01-14T01:32:55.026Z,5.15
2019-01-14T01:35:24.533Z,5.15
2019-01-14T01:37:54.076Z,5.15
2019-01-14T01:40:23.594Z,5.18
2019-01-14T01:42:53.260Z,5.22
2019-01-14T01:45:22.782Z,5.22
2019-01-14T01:47:52.308Z,5.20
2019-01-14T01:50:21.821Z,5.18
2019-01-14T01:52:51.786Z,5.17
2019-01-14T01:55:21.333Z,5.18
2019-01-14T01:57:51.183Z,5.16
2019-01-14T02:00:21.353Z,5.15
2019-01-14T02:02:51.322Z,5.15
2019-01-14T02:05:22.377Z,5.13
2019-01-14T02:07:51.964Z,5.12
2019-01-14T02:10:22.343Z,5.12
2019-01-14T02:12:51.811Z,5.12
2019-01-14T02:15:22.289Z,5.11
2019-01-14T02:17:51.948Z,5.11
2019-01-14T02:20:21.838Z,5.11
2019-01-14T02:22:51.765Z,5.10
2019-01-14T02:25:21.349Z,5.08
2019-01-14T02:27:50.877Z,5.07
2019-01-14T02:30:21.952Z,5.08
2019-01-14T02:32:51.695Z,5.06
2019-01-14T02:35:21.308Z,5.05
2019-01-14T02:37:50.833Z,5.03
2019-01-14T02:40:21.637Z,5.03
2019-01-14T02:42:51.266Z,5.00
2019-01-14T02:45:20.852Z,4.99
2019-01-14T02:47:50.455Z,4.96
2019-01-14T02:50:19.958Z,4.96
2019-01-14T02:52:49.559Z,5.00
2019-01-14T02:55:19.110Z,5.05
2019-01-14T02:57:48.737Z,5.09
2019-01-14T03:00:23.129Z,5.10
2019-01-14T03:02:52.741Z,5.09
2019-01-14T03:05:22.432Z,5.10
2019-01-14T03:07:52.408Z,5.08
2019-01-14T03:10:22.004Z,5.06
2019-01-14T03:12:51.566Z,5.06
2019-01-14T03:15:21.492Z,5.07
2019-01-14T03:17:51.100Z,5.05
2019-01-14T03:20:20.648Z,5.07
2019-01-14T03:22:50.521Z,5.07
2019-01-14T03:25:20.315Z,5.07
2019-01-14T03:27:49.875Z,5.07
2019-01-14T03:30:20.231Z,5.05
2019-01-14T03:32:49.860Z,4.99
2019-01-14T03:35:19.495Z,4.98
2019-01-14T03:37:49.143Z,4.97
2019-01-14T03:40:19.409Z,4.97
2019-01-14T03:42:49.004Z,4.94
2019-01-14T03:45:18.863Z,4.94
2019-01-14T03:47:48.391Z,4.94
2019-01-14T03:50:21.193Z,4.95
2019-01-14T03:52:51.432Z,4.96
2019-01-14T03:55:21.103Z,4.98
2019-01-14T03:57:52.874Z,4.94
2019-01-14T04:00:22.749Z,4.90
2019-01-14T04:02:52.346Z,4.85
2019-01-14T04:05:21.870Z,4.83
2019-01-14T04:07:51.833Z,4.80
2019-01-14T04:10:21.436Z,4.77
2019-01-14T04:12:50.956Z,4.72
2019-01-14T04:15:20.837Z,4.70
2019-01-14T04:17:50.431Z,4.67
2019-01-14T04:20:20.592Z,4.68
2019-01-14T04:22:50.710Z,4.68
2019-01-14T04:25:20.308Z,4.63
2019-01-14T04:27:49.840Z,4.55
2019-01-14T04:30:22.899Z,4.49
2019-01-14T04:32:52.691Z,4.44
2019-01-14T04:35:22.524Z,4.38
2019-01-14T04:37:52.152Z,4.30
2019-01-14T04:40:21.941Z,4.12
2019-01-14T04:42:51.539Z,3.97
2019-01-14T04:45:21.232Z,3.83
2019-01-14T04:47:50.771Z,3.70
2019-01-14T04:50:22.022Z,3.58
2019-01-14T04:52:51.644Z,3.48
2019-01-14T04:55:21.345Z,3.42
2019-01-14T04:57:50.934Z,3.36
2019-01-14T05:00:25.496Z,3.32
2019-01-14T05:02:55.092Z,3.28
2019-01-14T05:05:24.754Z,3.22
2019-01-14T05:07:54.274Z,3.14
2019-01-14T05:10:23.971Z,3.03
2019-01-14T05:12:53.498Z,3.02
2019-01-14T05:15:23.074Z,3.03
2019-01-14T05:17:52.602Z,3.07
2019-01-14T05:20:27.083Z,3.15
2019-01-14T05:22:56.981Z,3.20
2019-01-14T05:25:26.710Z,3.26
2019-01-14T05:27:56.234Z,3.34
2019-01-14T05:30:25.949Z,3.43
2019-01-14T05:32:55.499Z,3.51
2019-01-14T05:35:25.024Z,3.52
2019-01-14T05:37:54.707Z,3.53
2019-01-14T05:40:26.355Z,3.56
2019-01-14T05:42:56.010Z,3.59
2019-01-14T05:45:25.565Z,3.65
2019-01-14T05:47:55.219Z,3.66
2019-01-14T05:50:24.756Z,3.68
2019-01-14T05:52:54.430Z,3.67
2019-01-14T05:55:23.953Z,3.65
2019-01-14T05:57:53.547Z,3.62
2019-01-14T06:00:31.688Z,3.54
2019-01-14T06:03:01.214Z,3.51
2019-01-14T06:05:30.978Z,3.51
2019-01-14T06:08:00.964Z,3.48
2019-01-14T06:10:30.491Z,3.46
2019-01-14T06:13:00.095Z,3.47
2019-01-14T06:15:30.256Z,3.50
2019-01-14T06:17:59.779Z,3.43
2019-01-14T06:20:30.840Z,3.32
2019-01-14T06:23:00.425Z,3.22
2019-01-14T06:25:29.949Z,3.11
2019-01-14T06:27:59.468Z,3.01
2019-01-14T06:30:31.275Z,2.97
2019-01-14T06:33:00.861Z,2.99
2019-01-14T06:35:30.731Z,3.02
2019-01-14T06:38:00.347Z,3.09
2019-01-14T06:40:29.941Z,3.11
2019-01-14T06:42:59.555Z,3.11
2019-01-14T06:45:29.231Z,3.14
2019-01-14T06:47:58.767Z,3.12
2019-01-14T06:50:28.293Z,3.12
2019-01-14T06:52:59.809Z,3.15
2019-01-14T06:55:29.330Z,3.17
2019-01-14T06:57:59.111Z,3.12
2019-01-14T07:00:29.503Z,3.06
2019-01-14T07:02:59.026Z,2.96
2019-01-14T07:05:28.688Z,2.87
2019-01-14T07:07:59.775Z,2.73
2019-01-14T07:10:30.546Z,2.58
2019-01-14T07:13:00.306Z,2.38
2019-01-14T07:15:29.991Z,2.22
2019-01-14T07:17:59.524Z,2.09
2019-01-14T07:20:29.146Z,2.04
2019-01-14T07:22:58.667Z,2.01
2019-01-14T07:25:28.204Z,2.01
2019-01-14T07:27:57.716Z,2.05
2019-01-14T07:30:27.344Z,2.14
2019-01-14T07:32:56.883Z,2.24
2019-01-14T07:35:26.411Z,2.36
2019-01-14T07:37:55.963Z,2.47
2019-01-14T07:40:25.599Z,2.58
2019-01-14T07:42:55.088Z,2.68
2019-01-14T07:45:24.698Z,2.72
2019-01-14T07:47:54.220Z,2.74
2019-01-14T07:50:23.809Z,2.78
2019-01-14T07:52:53.660Z,2.85
2019-01-14T07:55:23.198Z,2.95
2019-01-14T07:57:52.730Z,3.05
2019-01-14T08:00:25.320Z,3.17
2019-01-14T08:02:55.128Z,3.27
2019-01-14T08:05:24.645Z,3.34
2019-01-14T08:07:54.358Z,3.37
2019-01-14T08:10:24.018Z,3.38
2019-01-14T08:12:53.535Z,3.34
2019-01-14T08:15:23.548Z,3.32
2019-01-14T08:17:53.373Z,3.33
2019-01-14T08:20:22.869Z,3.34
2019-01-14T08:22:52.576Z,3.38
2019-01-14T08:25:22.098Z,3.43
2019-01-14T08:27:51.648Z,3.47
2019-01-14T08:30:22.540Z,3.52
2019-01-14T08:32:52.330Z,3.58
2019-01-14T08:35:21.989Z,3.62
2019-01-14T08:37:51.534Z,3.60
2019-01-14T08:40:21.205Z,3.57
2019-01-14T08:42:50.726Z,3.61
2019-01-14T08:45:20.420Z,3.67
2019-01-14T08:47:49.940Z,3.83
2019-01-14T08:50:20.195Z,4.04
2019-01-14T08:52:49.746Z,4.25
2019-01-14T08:55:19.336Z,4.39
2019-01-14T08:57:54.500Z,4.41
2019-01-14T09:00:21.608Z,4.36
2019-01-14T09:02:51.130Z,4.45
2019-01-14T09:05:20.825Z,4.67
2019-01-14T09:07:50.386Z,4.91
2019-01-14T09:10:23.415Z,4.98
2019-01-14T09:12:53.176Z,4.94
2019-01-14T09:15:22.789Z,4.94
2019-01-14T09:17:52.315Z,5.02
2019-01-14T09:20:23.143Z,5.41
2019-01-14T09:22:52.848Z,6.05
2019-01-14T09:25:22.376Z,6.57
2019-01-14T09:27:51.962Z,7.00
2019-01-14T09:30:25.817Z,7.26
2019-01-14T09:32:55.566Z,7.50
2019-01-14T09:35:25.094Z,7.67
2019-01-14T09:37:54.717Z,7.81
2019-01-14T09:40:25.143Z,8.04
2019-01-14T09:42:54.665Z,8.30
2019-01-14T09:45:24.351Z,8.49
2019-01-14T09:47:53.951Z,8.51
2019-01-14T09:50:23.547Z,8.48
2019-01-14T09:52:53.515Z,8.46
2019-01-14T09:55:23.031Z,8.38
2019-01-14T09:57:52.623Z,8.42
2019-01-14T10:00:22.530Z,8.25
2019-01-14T10:02:55.592Z,8.13
2019-01-14T10:05:23.399Z,8.07
2019-01-14T10:07:53.075Z,7.92
2019-01-14T10:10:22.769Z,8.01
2019-01-14T10:12:52.296Z,8.16
2019-01-14T10:15:24.045Z,8.44
2019-01-14T10:17:55.278Z,8.54
2019-01-14T10:20:24.800Z,8.42
2019-01-14T10:22:54.462Z,8.24
2019-01-14T10:25:24.855Z,8.37
2019-01-14T10:27:54.547Z,8.33
2019-01-14T10:30:24.159Z,8.11
2019-01-14T10:32:53.749Z,7.83
2019-01-14T10:35:23.277Z,7.80
2019-01-14T10:37:53.005Z,7.85
2019-01-14T10:40:22.533Z,7.56
2019-01-14T10:42:52.058Z,7.15
2019-01-14T10:45:23.698Z,6.83
2019-01-14T10:47:53.286Z,6.62
2019-01-14T10:50:22.882Z,6.68
2019-01-14T10:52:52.819Z,6.70
2019-01-14T10:55:22.325Z,6.58
2019-01-14T10:57:52.193Z,6.45
2019-01-14T11:00:25.120Z,6.28
2019-01-14T11:02:55.080Z,5.99
2019-01-14T11:05:28.249Z,5.86
2019-01-14T11:07:58.025Z,5.75
2019-01-14T11:10:27.616Z,5.55
2019-01-14T11:12:57.482Z,5.44
2019-01-14T11:15:27.557Z,5.34
2019-01-14T11:17:57.095Z,5.19
2019-01-14T11:20:30.096Z,5.12
2019-01-14T11:23:00.706Z,5.15
2019-01-14T11:25:30.400Z,5.18
2019-01-14T11:28:00.090Z,5.12
2019-01-14T11:30:31.163Z,5.06
2019-01-14T11:33:00.686Z,5.02
2019-01-14T11:35:30.556Z,4.96
2019-01-14T11:38:00.384Z,4.85
2019-01-14T11:40:34.190Z,4.73
2019-01-14T11:43:03.785Z,4.66
2019-01-14T11:45:33.331Z,4.67
2019-01-14T11:48:03.299Z,4.73
2019-01-14T11:50:32.836Z,4.73
2019-01-14T11:53:02.853Z,4.69
2019-01-14T11:55:32.416Z,4.61
2019-01-14T11:58:01.942Z,4.55
2019-01-14T12:00:36.559Z,4.50
2019-01-14T12:03:03.012Z,4.43
2019-01-14T12:05:32.519Z,4.36
2019-01-14T12:08:02.133Z,4.33
2019-01-14T12:10:31.795Z,4.30
2019-01-14T12:13:01.268Z,4.29
2019-01-14T12:15:31.464Z,4.29
2019-01-14T12:18:01.016Z,4.30
2019-01-14T12:20:30.618Z,4.23
2019-01-14T12:23:00.419Z,4.15
2019-01-14T12:25:29.942Z,4.11
2019-01-14T12:27:59.469Z,4.11
2019-01-14T12:30:35.563Z,4.18
2019-01-14T12:33:05.692Z,4.23
2019-01-14T12:35:35.357Z,4.18
2019-01-14T12:38:05.431Z,4.12
2019-01-14T12:40:34.963Z,4.05
2019-01-14T12:43:04.726Z,4.00
2019-01-14T12:45:34.434Z,3.96
2019-01-14T12:48:04.269Z,3.94
2019-01-14T12:50:33.958Z,3.93
2019-01-14T12:53:03.689Z,3.94
2019-01-14T12:55:33.234Z,3.93
2019-01-14T12:58:02.756Z,3.89
2019-01-14T13:00:32.381Z,3.89
2019-01-14T13:03:01.978Z,3.89
2019-01-14T13:05:32.337Z,3.89
2019-01-14T13:08:02.045Z,3.90
2019-01-14T13:10:31.576Z,3.88
2019-01-14T13:13:01.111Z,3.92
2019-01-14T13:15:31.097Z,4.02
2019-01-14T13:18:05.247Z,4.13
2019-01-14T13:20:31.923Z,4.25
2019-01-14T13:23:01.651Z,4.36
2019-01-14T13:25:31.263Z,4.40
2019-01-14T13:28:00.791Z,4.43
2019-01-14T13:30:30.879Z,4.40
2019-01-14T13:33:00.913Z,4.33
2019-01-14T13:35:30.508Z,4.35
2019-01-14T13:38:00.196Z,4.40
2019-01-14T13:40:29.835Z,4.44
2019-01-14T13:42:59.339Z,4.37
2019-01-14T13:45:28.886Z,4.30
2019-01-14T13:47:58.414Z,4.19
2019-01-14T13:50:28.446Z,4.10
2019-01-14T13:52:57.997Z,3.82
2019-01-14T13:55:27.608Z,3.49
2019-01-14T13:57:59.962Z,3.26
2019-01-14T14:00:28.846Z,3.06
2019-01-14T14:02:58.368Z,2.91
2019-01-14T14:05:27.969Z,2.86
2019-01-14T14:07:57.514Z,2.85
2019-01-14T14:10:29.343Z,2.86
2019-01-14T14:12:59.086Z,2.86
2019-01-14T14:15:29.977Z,2.83
2019-01-14T14:18:00.040Z,2.78
2019-01-14T14:20:29.720Z,2.72
2019-01-14T14:22:59.252Z,2.65
2019-01-14T14:25:28.916Z,2.59
2019-01-14T14:27:58.440Z,2.52
2019-01-14T14:30:35.938Z,2.44
2019-01-14T14:33:05.631Z,2.37
2019-01-14T14:35:35.146Z,2.27
2019-01-14T14:38:05.433Z,2.21
2019-01-14T14:40:35.021Z,2.18
2019-01-14T14:43:06.501Z,2.15
2019-01-14T14:45:36.027Z,2.10
2019-01-14T14:48:05.994Z,2.03
2019-01-14T14:50:35.523Z,2.02
2019-01-14T14:53:05.507Z,1.97
2019-01-14T14:55:35.035Z,1.94
2019-01-14T14:58:04.799Z,1.94
2019-01-14T15:00:34.431Z,1.93
2019-01-14T15:03:04.323Z,1.91
2019-01-14T15:05:33.843Z,1.90
2019-01-14T15:08:03.386Z,1.87
2019-01-14T15:10:32.914Z,1.86
2019-01-14T15:13:02.439Z,1.84
2019-01-14T15:15:32.214Z,1.79
2019-01-14T15:18:01.734Z,1.74
2019-01-14T15:20:31.258Z,1.73
2019-01-14T15:23:01.032Z,1.68
2019-01-14T15:25:30.565Z,1.67
2019-01-14T15:28:00.085Z,1.60
2019-01-14T15:30:30.439Z,1.59
2019-01-14T15:33:00.042Z,1.56
2019-01-14T15:35:29.642Z,1.52
2019-01-14T15:37:59.326Z,1.51
2019-01-14T15:40:29.213Z,1.52
2019-01-14T15:42:58.734Z,1.50
2019-01-14T15:45:28.433Z,1.50
2019-01-14T15:47:58.024Z,1.44
2019-01-14T15:50:27.876Z,1.43
2019-01-14T15:52:57.442Z,1.41
2019-01-14T15:55:26.963Z,1.39
2019-01-14T15:57:56.483Z,1.40
2019-01-14T16:00:26.379Z,1.39
2019-01-14T16:02:56.149Z,1.35
2019-01-14T16:05:25.670Z,1.33
2019-01-14T16:07:55.215Z,1.30
2019-01-14T16:10:25.378Z,1.25
2019-01-14T16:12:54.968Z,1.18
2019-01-14T16:15:24.801Z,1.13
2019-01-14T16:17:54.328Z,1.11
2019-01-14T16:20:25.455Z,1.08
2019-01-14T16:22:55.081Z,1.03
2019-01-14T16:25:24.604Z,1.03
2019-01-14T16:27:54.128Z,0.97
2019-01-14T16:30:25.379Z,0.95
2019-01-14T16:32:55.047Z,0.93
2019-01-14T16:35:24.636Z,0.89
2019-01-14T16:37:54.348Z,0.87
2019-01-14T16:40:23.989Z,0.84
2019-01-14T16:42:53.509Z,0.82
2019-01-14T16:45:24.844Z,0.80
2019-01-14T16:47:54.367Z,0.79
2019-01-14T16:50:23.892Z,0.76
2019-01-14T16:52:53.504Z,0.72
2019-01-14T16:55:34.023Z,0.69
2019-01-14T16:58:03.578Z,0.67
2019-01-14T17:00:33.112Z,0.66
2019-01-14T17:03:02.669Z,0.62
2019-01-14T17:05:32.460Z,0.63
2019-01-14T17:08:01.992Z,0.62
2019-01-14T17:10:31.513Z,0.65
2019-01-14T17:13:01.149Z,0.67
2019-01-14T17:15:30.679Z,0.68
2019-01-14T17:18:00.201Z,0.67
2019-01-14T17:20:29.910Z,0.65
2019-01-14T17:22:59.432Z,0.59
2019-01-14T17:25:28.955Z,0.53
2019-01-14T17:27:58.624Z,0.51
2019-01-14T17:30:28.161Z,0.52
2019-01-14T17:32:57.688Z,0.49
2019-01-14T17:35:27.345Z,0.48
2019-01-14T17:37:56.883Z,0.48
2019-01-14T17:40:32.546Z,0.42
2019-01-14T17:42:57.720Z,0.39
2019-01-14T17:45:27.235Z,0.37
2019-01-14T17:47:56.763Z,0.35
2019-01-14T17:50:26.341Z,0.38
2019-01-14T17:52:55.930Z,0.37
2019-01-14T17:55:25.480Z,0.35
2019-01-14T17:57:55.048Z,0.33
2019-01-14T18:00:25.763Z,0.33
2019-01-14T18:02:55.292Z,0.34
2019-01-14T18:05:25.127Z,0.34
2019-01-14T18:07:54.628Z,0.32
2019-01-14T18:10:24.146Z,0.33
2019-01-14T18:12:54.041Z,0.33
2019-01-14T18:15:23.574Z,0.34
2019-01-14T18:17:53.105Z,0.35
2019-01-14T18:20:22.739Z,0.34
2019-01-14T18:22:52.269Z,0.33
2019-01-14T18:25:21.792Z,0.33
2019-01-14T18:27:51.412Z,0.33
2019-01-14T18:30:21.514Z,0.33
2019-01-14T18:32:51.112Z,0.32
2019-01-14T18:35:20.776Z,0.31
2019-01-14T18:37:50.364Z,0.29
2019-01-14T18:40:20.033Z,0.31
2019-01-14T18:42:49.716Z,0.32
2019-01-14T18:45:19.688Z,0.33
2019-01-14T18:47:49.329Z,0.31
2019-01-14T18:50:21.657Z,0.27
2019-01-14T18:52:51.490Z,0.24
2019-01-14T18:55:21.028Z,0.23
2019-01-14T18:57:50.653Z,0.22
2019-01-14T19:00:22.691Z,0.23
2019-01-14T19:02:52.402Z,0.25
2019-01-14T19:05:22.157Z,0.26
2019-01-14T19:07:51.755Z,0.29
2019-01-14T19:10:21.357Z,0.32
2019-01-14T19:12:50.986Z,0.40
2019-01-14T19:15:20.789Z,0.50
2019-01-14T19:17:50.462Z,0.60
2019-01-14T19:20:23.724Z,0.70
2019-01-14T19:22:53.254Z,0.78
2019-01-14T19:25:22.853Z,0.85
2019-01-14T19:27:52.420Z,0.91
2019-01-14T19:30:22.901Z,0.98
2019-01-14T19:32:52.494Z,1.05
2019-01-14T19:35:22.119Z,1.11
2019-01-14T19:37:51.643Z,1.16
2019-01-14T19:40:21.576Z,1.18
2019-01-14T19:42:51.200Z,1.19
2019-01-14T19:45:21.643Z,1.19
2019-01-14T19:47:51.411Z,1.17
2019-01-14T19:50:22.895Z,1.12
2019-01-14T19:52:52.723Z,1.03
2019-01-14T19:55:22.288Z,0.93
2019-01-14T19:57:52.115Z,0.87
2019-01-14T20:00:25.752Z,0.88
2019-01-14T20:02:55.486Z,0.89
2019-01-14T20:05:25.306Z,0.90
2019-01-14T20:07:55.527Z,0.95
2019-01-14T20:10:25.058Z,0.97
2019-01-14T20:12:54.966Z,0.98
2019-01-14T20:15:24.497Z,0.99
2019-01-14T20:17:54.036Z,1.05
2019-01-14T20:20:23.677Z,1.11
2019-01-14T20:22:53.199Z,1.18
2019-01-14T20:25:22.807Z,1.25
2019-01-14T20:27:52.508Z,1.29
2019-01-14T20:30:23.184Z,1.30
2019-01-14T20:32:52.795Z,1.30
2019-01-14T20:35:22.425Z,1.23
2019-01-14T20:37:51.955Z,1.12
2019-01-14T20:40:21.556Z,1.00
2019-01-14T20:42:51.203Z,0.89
2019-01-14T20:45:20.808Z,0.80
2019-01-14T20:47:50.344Z,0.73
2019-01-14T20:50:21.018Z,0.69
2019-01-14T20:52:50.553Z,0.65
2019-01-14T20:55:20.226Z,0.60
2019-01-14T20:57:49.791Z,0.57
2019-01-14T21:00:23.198Z,0.54
2019-01-14T21:02:53.069Z,0.52
2019-01-14T21:06:35.400Z,0.49
2019-01-14T21:09:07.054Z,0.48
2019-01-14T21:11:36.621Z,0.53
2019-01-14T21:14:06.296Z,0.62
2019-01-14T21:16:35.853Z,0.70
2019-01-14T21:19:05.454Z,0.79
2019-01-14T21:21:35.012Z,0.82
2019-01-14T21:24:04.669Z,0.86
2019-01-14T21:26:34.214Z,0.91
2019-01-14T21:29:03.751Z,0.94
2019-01-14T21:31:33.398Z,0.93
2019-01-14T21:34:02.907Z,0.94
2019-01-14T21:36:32.442Z,0.90
2019-01-14T21:39:01.999Z,0.84
2019-01-14T21:41:31.681Z,0.85
2019-01-14T21:44:01.267Z,0.92
2019-01-14T21:46:30.827Z,0.98
2019-01-14T21:49:00.402Z,1.01
2019-01-14T21:51:30.000Z,1.03
2019-01-14T21:54:00.415Z,1.03
2019-01-14T21:56:29.958Z,1.02
2019-01-14T21:58:59.543Z,0.97
2019-01-14T22:01:29.075Z,0.96
2019-01-14T22:03:58.808Z,0.92
2019-01-14T22:06:28.360Z,0.88
2019-01-14T22:08:57.899Z,0.79
2019-01-14T22:11:27.504Z,0.65
2019-01-14T22:13:57.099Z,0.57
2019-01-14T22:16:26.702Z,0.61
2019-01-14T22:18:56.276Z,0.67
2019-01-14T22:21:25.829Z,0.68
2019-01-14T22:23:55.449Z,0.68
2019-01-14T22:26:25.003Z,0.65
2019-01-14T22:28:54.559Z,0.56
2019-01-14T22:31:24.115Z,0.46
2019-01-14T22:33:53.829Z,0.43
2019-01-14T22:36:23.454Z,0.39
2019-01-14T22:38:53.044Z,0.41
2019-01-14T22:41:22.744Z,0.45
2019-01-14T22:43:52.257Z,0.52
2019-01-14T22:46:21.794Z,0.55
2019-01-14T22:48:51.538Z,0.55
2019-01-14T22:51:21.077Z,0.57
2019-01-14T22:53:50.697Z,0.58
2019-01-14T22:56:20.378Z,0.53
2019-01-14T22:58:49.934Z,0.49
2019-01-14T23:01:23.653Z,0.51
2019-01-14T23:03:53.348Z,0.45
2019-01-14T23:06:22.907Z,0.42
2019-01-14T23:08:52.450Z,0.45
2019-01-14T23:11:22.022Z,0.55
2019-01-14T23:13:51.616Z,0.64
2019-01-14T23:16:21.153Z,0.73
2019-01-14T23:18:50.925Z,0.79
2019-01-14T23:21:20.472Z,0.83
2019-01-14T23:23:50.012Z,0.85
2019-01-14T23:26:19.581Z,0.93
2019-01-14T23:28:49.145Z,1.03
2019-01-14T23:31:18.657Z,1.10
2019-01-14T23:33:48.227Z,1.14
2019-01-14T23:36:17.756Z,1.20
2019-01-14T23:38:47.292Z,1.19
2019-01-14T23:41:17.306Z,1.12
2019-01-14T23:43:47.077Z,1.06
2019-01-14T23:46:16.638Z,1.08
2019-01-14T23:48:46.530Z,1.18
2019-01-14T23:51:16.097Z,1.28
2019-01-14T23:53:45.651Z,1.35
2019-01-14T23:56:15.486Z,1.45
2019-01-14T23:58:45.016Z,1.51
